sensor_id;sensor_type;location;lat;lon;timestamp;P1;durP1;ratioP1;P2;durP2;ratioP2
11943;SDS011;6031;50.220;10.122;2023-08-07T00:00:04;0.10;;;0.10;;
11943;SDS011;6031;50.220;10.122;2023-08-07T00:02:30;0.10;;;0.10;;
11943;SDS011;6031;50.220;10.122;2023-08-07T00:04:56;0.30;;;0.30;;
11943;SDS011;6031;50.220;10.122;2023-08-07T00:07:22;1.70;;;0.20;;
11943;SDS011;6031;50.220;10.122;2023-08-07T00:09:49;0.90;;;0.20;;
11943;SDS011;6031;50.220;10.122;2023-08-07T00:12:15;1.20;;;0.20;;
11943;SDS011;6031;50.220;10.122;2023-08-07T00:14:40;0.53;;;0.33;;
11943;SDS011;6031;50.220;10.122;2023-08-07T00:17:06;0.20;;;0.20;;
11943;SDS011;6031;50.220;10.122;2023-08-07T00:19:33;0.20;;;0.20;;
11943;SDS011;6031;50.220;10.122;2023-08-07T00:21:59;0.53;;;0.30;;
11943;SDS011;6031;50.220;10.122;2023-08-07T00:24:24;0.10;;;0.10;;
11943;SDS011;6031;50.220;10.122;2023-08-07T00:26:50;2.43;;;0.20;;
11943;SDS011;6031;50.220;10.122;2023-08-07T00:29:16;0.20;;;0.20;;
11943;SDS011;6031;50.220;10.122;2023-08-07T00:31:41;0.33;;;0.33;;
11943;SDS011;6031;50.220;10.122;2023-08-07T00:34:07;0.40;;;0.40;;
11943;SDS011;6031;50.220;10.122;2023-08-07T00:36:32;0.23;;;0.23;;
11943;SDS011;6031;50.220;10.122;2023-08-07T00:39:00;1.07;;;0.77;;
11943;SDS011;6031;50.220;10.122;2023-08-07T00:41:25;0.30;;;0.30;;
11943;SDS011;6031;50.220;10.122;2023-08-07T00:43:51;0.50;;;0.50;;
11943;SDS011;6031;50.220;10.122;2023-08-07T00:46:17;0.40;;;0.40;;
11943;SDS011;6031;50.220;10.122;2023-08-07T00:48:43;0.60;;;0.60;;
11943;SDS011;6031;50.220;10.122;2023-08-07T00:51:09;1.23;;;0.47;;
11943;SDS011;6031;50.220;10.122;2023-08-07T00:53:37;0.87;;;0.67;;
11943;SDS011;6031;50.220;10.122;2023-08-07T00:56:04;0.83;;;0.47;;
11943;SDS011;6031;50.220;10.122;2023-08-07T00:58:31;0.30;;;0.30;;
11943;SDS011;6031;50.220;10.122;2023-08-07T01:00:57;0.20;;;0.20;;
11943;SDS011;6031;50.220;10.122;2023-08-07T01:03:23;1.10;;;0.63;;
11943;SDS011;6031;50.220;10.122;2023-08-07T01:05:49;0.23;;;0.23;;
11943;SDS011;6031;50.220;10.122;2023-08-07T01:08:14;1.37;;;0.50;;
11943;SDS011;6031;50.220;10.122;2023-08-07T01:10:45;1.23;;;0.50;;
11943;SDS011;6031;50.220;10.122;2023-08-07T01:13:18;0.60;;;0.60;;
11943;SDS011;6031;50.220;10.122;2023-08-07T01:15:59;0.50;;;0.50;;
11943;SDS011;6031;50.220;10.122;2023-08-07T01:18:33;0.93;;;0.70;;
11943;SDS011;6031;50.220;10.122;2023-08-07T01:21:00;0.77;;;0.40;;
11943;SDS011;6031;50.220;10.122;2023-08-07T01:23:25;0.80;;;0.40;;
11943;SDS011;6031;50.220;10.122;2023-08-07T01:25:51;1.13;;;0.73;;
11943;SDS011;6031;50.220;10.122;2023-08-07T01:28:19;0.70;;;0.70;;
11943;SDS011;6031;50.220;10.122;2023-08-07T01:30:59;1.03;;;0.40;;
11943;SDS011;6031;50.220;10.122;2023-08-07T01:33:31;0.60;;;0.60;;
11943;SDS011;6031;50.220;10.122;2023-08-07T01:36:05;1.70;;;0.63;;
11943;SDS011;6031;50.220;10.122;2023-08-07T01:38:32;0.90;;;0.80;;
11943;SDS011;6031;50.220;10.122;2023-08-07T01:40:58;0.67;;;0.67;;
11943;SDS011;6031;50.220;10.122;2023-08-07T01:43:25;1.50;;;1.20;;
11943;SDS011;6031;50.220;10.122;2023-08-07T01:45:52;1.33;;;1.23;;
11943;SDS011;6031;50.220;10.122;2023-08-07T01:48:17;1.53;;;1.07;;
11943;SDS011;6031;50.220;10.122;2023-08-07T01:50:43;1.23;;;1.10;;
11943;SDS011;6031;50.220;10.122;2023-08-07T01:53:09;0.70;;;0.70;;
11943;SDS011;6031;50.220;10.122;2023-08-07T01:55:34;1.20;;;1.10;;
11943;SDS011;6031;50.220;10.122;2023-08-07T01:58:00;1.23;;;1.13;;
11943;SDS011;6031;50.220;10.122;2023-08-07T02:00:25;0.97;;;0.83;;
11943;SDS011;6031;50.220;10.122;2023-08-07T02:02:51;2.00;;;0.83;;
11943;SDS011;6031;50.220;10.122;2023-08-07T02:05:16;0.70;;;0.70;;
11943;SDS011;6031;50.220;10.122;2023-08-07T02:07:42;0.50;;;0.50;;
11943;SDS011;6031;50.220;10.122;2023-08-07T02:10:08;3.40;;;0.80;;
11943;SDS011;6031;50.220;10.122;2023-08-07T02:12:33;1.33;;;0.60;;
11943;SDS011;6031;50.220;10.122;2023-08-07T02:14:59;3.80;;;0.70;;
11943;SDS011;6031;50.220;10.122;2023-08-07T02:17:25;1.27;;;0.73;;
11943;SDS011;6031;50.220;10.122;2023-08-07T02:19:57;0.60;;;0.60;;
11943;SDS011;6031;50.220;10.122;2023-08-07T02:22:23;0.60;;;0.60;;
11943;SDS011;6031;50.220;10.122;2023-08-07T02:24:49;0.60;;;0.60;;
11943;SDS011;6031;50.220;10.122;2023-08-07T02:27:14;0.93;;;0.93;;
11943;SDS011;6031;50.220;10.122;2023-08-07T02:29:40;0.93;;;0.47;;
11943;SDS011;6031;50.220;10.122;2023-08-07T02:32:06;0.30;;;0.30;;
11943;SDS011;6031;50.220;10.122;2023-08-07T02:34:31;0.40;;;0.40;;
11943;SDS011;6031;50.220;10.122;2023-08-07T02:36:57;0.70;;;0.47;;
11943;SDS011;6031;50.220;10.122;2023-08-07T02:39:24;0.50;;;0.50;;
11943;SDS011;6031;50.220;10.122;2023-08-07T02:41:50;0.57;;;0.57;;
11943;SDS011;6031;50.220;10.122;2023-08-07T02:44:15;0.50;;;0.50;;
11943;SDS011;6031;50.220;10.122;2023-08-07T02:46:42;0.37;;;0.37;;
11943;SDS011;6031;50.220;10.122;2023-08-07T02:49:08;0.40;;;0.40;;
11943;SDS011;6031;50.220;10.122;2023-08-07T02:51:33;0.50;;;0.50;;
11943;SDS011;6031;50.220;10.122;2023-08-07T02:53:59;0.40;;;0.40;;
11943;SDS011;6031;50.220;10.122;2023-08-07T02:56:24;0.40;;;0.40;;
11943;SDS011;6031;50.220;10.122;2023-08-07T02:58:50;0.50;;;0.50;;
11943;SDS011;6031;50.220;10.122;2023-08-07T03:01:15;0.50;;;0.40;;
11943;SDS011;6031;50.220;10.122;2023-08-07T03:03:41;0.40;;;0.40;;
11943;SDS011;6031;50.220;10.122;2023-08-07T03:06:06;0.30;;;0.30;;
11943;SDS011;6031;50.220;10.122;2023-08-07T03:08:32;0.63;;;0.50;;
11943;SDS011;6031;50.220;10.122;2023-08-07T03:10:57;0.43;;;0.43;;
11943;SDS011;6031;50.220;10.122;2023-08-07T03:13:23;0.50;;;0.40;;
11943;SDS011;6031;50.220;10.122;2023-08-07T03:15:50;0.40;;;0.40;;
11943;SDS011;6031;50.220;10.122;2023-08-07T03:18:23;1.80;;;0.50;;
11943;SDS011;6031;50.220;10.122;2023-08-07T03:20:48;0.50;;;0.50;;
11943;SDS011;6031;50.220;10.122;2023-08-07T03:23:14;0.20;;;0.20;;
11943;SDS011;6031;50.220;10.122;2023-08-07T03:25:39;0.30;;;0.30;;
11943;SDS011;6031;50.220;10.122;2023-08-07T03:28:05;0.40;;;0.40;;
11943;SDS011;6031;50.220;10.122;2023-08-07T03:30:31;0.30;;;0.30;;
11943;SDS011;6031;50.220;10.122;2023-08-07T03:32:56;0.83;;;0.40;;
11943;SDS011;6031;50.220;10.122;2023-08-07T03:35:22;0.50;;;0.50;;
11943;SDS011;6031;50.220;10.122;2023-08-07T03:37:47;0.30;;;0.30;;
11943;SDS011;6031;50.220;10.122;2023-08-07T03:40:13;0.57;;;0.47;;
11943;SDS011;6031;50.220;10.122;2023-08-07T03:42:38;0.43;;;0.33;;
11943;SDS011;6031;50.220;10.122;2023-08-07T03:45:04;1.40;;;0.43;;
11943;SDS011;6031;50.220;10.122;2023-08-07T03:47:30;1.23;;;0.23;;
11943;SDS011;6031;50.220;10.122;2023-08-07T03:49:55;0.30;;;0.30;;
11943;SDS011;6031;50.220;10.122;2023-08-07T03:52:21;0.20;;;0.20;;
11943;SDS011;6031;50.220;10.122;2023-08-07T03:54:46;0.33;;;0.33;;
11943;SDS011;6031;50.220;10.122;2023-08-07T03:57:12;0.30;;;0.30;;
11943;SDS011;6031;50.220;10.122;2023-08-07T03:59:37;0.60;;;0.40;;
11943;SDS011;6031;50.220;10.122;2023-08-07T04:02:03;1.60;;;0.30;;
11943;SDS011;6031;50.220;10.122;2023-08-07T04:04:29;0.87;;;0.60;;
11943;SDS011;6031;50.220;10.122;2023-08-07T04:06:55;0.30;;;0.30;;
11943;SDS011;6031;50.220;10.122;2023-08-07T04:09:20;0.43;;;0.40;;
11943;SDS011;6031;50.220;10.122;2023-08-07T04:11:46;0.33;;;0.33;;
11943;SDS011;6031;50.220;10.122;2023-08-07T04:14:12;0.93;;;0.90;;
11943;SDS011;6031;50.220;10.122;2023-08-07T04:16:37;0.40;;;0.40;;
11943;SDS011;6031;50.220;10.122;2023-08-07T04:19:03;0.97;;;0.70;;
11943;SDS011;6031;50.220;10.122;2023-08-07T04:21:30;1.77;;;0.60;;
11943;SDS011;6031;50.220;10.122;2023-08-07T04:23:55;0.77;;;0.60;;
11943;SDS011;6031;50.220;10.122;2023-08-07T04:26:21;0.60;;;0.60;;
11943;SDS011;6031;50.220;10.122;2023-08-07T04:28:46;1.70;;;0.60;;
11943;SDS011;6031;50.220;10.122;2023-08-07T04:31:12;1.43;;;0.60;;
11943;SDS011;6031;50.220;10.122;2023-08-07T04:33:38;0.60;;;0.57;;
11943;SDS011;6031;50.220;10.122;2023-08-07T04:36:03;0.53;;;0.47;;
11943;SDS011;6031;50.220;10.122;2023-08-07T04:38:29;0.43;;;0.30;;
11943;SDS011;6031;50.220;10.122;2023-08-07T04:40:55;1.03;;;0.63;;
11943;SDS011;6031;50.220;10.122;2023-08-07T04:43:20;0.37;;;0.37;;
11943;SDS011;6031;50.220;10.122;2023-08-07T04:45:46;1.63;;;0.40;;
11943;SDS011;6031;50.220;10.122;2023-08-07T04:48:12;0.30;;;0.30;;
11943;SDS011;6031;50.220;10.122;2023-08-07T04:50:37;0.73;;;0.60;;
11943;SDS011;6031;50.220;10.122;2023-08-07T04:53:04;0.60;;;0.60;;
11943;SDS011;6031;50.220;10.122;2023-08-07T04:55:30;0.33;;;0.30;;
11943;SDS011;6031;50.220;10.122;2023-08-07T04:57:56;0.60;;;0.40;;
11943;SDS011;6031;50.220;10.122;2023-08-07T05:00:22;0.40;;;0.40;;
11943;SDS011;6031;50.220;10.122;2023-08-07T05:02:48;0.40;;;0.40;;
11943;SDS011;6031;50.220;10.122;2023-08-07T05:05:14;1.23;;;0.67;;
11943;SDS011;6031;50.220;10.122;2023-08-07T05:07:40;0.40;;;0.40;;
11943;SDS011;6031;50.220;10.122;2023-08-07T05:10:06;0.50;;;0.50;;
11943;SDS011;6031;50.220;10.122;2023-08-07T05:12:33;0.70;;;0.50;;
11943;SDS011;6031;50.220;10.122;2023-08-07T05:14:59;1.27;;;0.40;;
11943;SDS011;6031;50.220;10.122;2023-08-07T05:17:24;0.50;;;0.43;;
11943;SDS011;6031;50.220;10.122;2023-08-07T05:19:50;0.40;;;0.40;;
11943;SDS011;6031;50.220;10.122;2023-08-07T05:22:16;1.10;;;0.73;;
11943;SDS011;6031;50.220;10.122;2023-08-07T05:24:41;0.67;;;0.50;;
11943;SDS011;6031;50.220;10.122;2023-08-07T05:27:08;0.57;;;0.57;;
11943;SDS011;6031;50.220;10.122;2023-08-07T05:29:34;0.30;;;0.30;;
11943;SDS011;6031;50.220;10.122;2023-08-07T05:32:08;0.33;;;0.33;;
11943;SDS011;6031;50.220;10.122;2023-08-07T05:34:34;1.60;;;0.30;;
11943;SDS011;6031;50.220;10.122;2023-08-07T05:36:59;0.50;;;0.50;;
11943;SDS011;6031;50.220;10.122;2023-08-07T05:39:25;0.70;;;0.70;;
11943;SDS011;6031;50.220;10.122;2023-08-07T05:41:50;0.73;;;0.40;;
11943;SDS011;6031;50.220;10.122;2023-08-07T05:44:18;0.43;;;0.43;;
11943;SDS011;6031;50.220;10.122;2023-08-07T05:46:44;0.43;;;0.43;;
11943;SDS011;6031;50.220;10.122;2023-08-07T05:49:09;0.40;;;0.40;;
11943;SDS011;6031;50.220;10.122;2023-08-07T05:51:35;0.90;;;0.73;;
11943;SDS011;6031;50.220;10.122;2023-08-07T05:54:00;0.27;;;0.27;;
11943;SDS011;6031;50.220;10.122;2023-08-07T05:56:26;0.77;;;0.40;;
11943;SDS011;6031;50.220;10.122;2023-08-07T05:58:51;0.67;;;0.67;;
11943;SDS011;6031;50.220;10.122;2023-08-07T06:01:17;0.50;;;0.50;;
11943;SDS011;6031;50.220;10.122;2023-08-07T06:03:43;1.47;;;0.40;;
11943;SDS011;6031;50.220;10.122;2023-08-07T06:06:08;0.40;;;0.40;;
11943;SDS011;6031;50.220;10.122;2023-08-07T06:08:34;0.93;;;0.47;;
11943;SDS011;6031;50.220;10.122;2023-08-07T06:10:59;0.43;;;0.43;;
11943;SDS011;6031;50.220;10.122;2023-08-07T06:13:28;0.83;;;0.37;;
11943;SDS011;6031;50.220;10.122;2023-08-07T06:15:54;3.43;;;2.53;;
11943;SDS011;6031;50.220;10.122;2023-08-07T06:18:19;0.60;;;0.60;;
11943;SDS011;6031;50.220;10.122;2023-08-07T06:20:45;0.73;;;0.73;;
11943;SDS011;6031;50.220;10.122;2023-08-07T06:23:11;0.73;;;0.70;;
11943;SDS011;6031;50.220;10.122;2023-08-07T06:25:37;0.60;;;0.60;;
11943;SDS011;6031;50.220;10.122;2023-08-07T06:28:02;0.60;;;0.60;;
11943;SDS011;6031;50.220;10.122;2023-08-07T06:30:28;0.90;;;0.90;;
11943;SDS011;6031;50.220;10.122;2023-08-07T06:32:55;0.83;;;0.77;;
11943;SDS011;6031;50.220;10.122;2023-08-07T06:35:21;0.87;;;0.87;;
11943;SDS011;6031;50.220;10.122;2023-08-07T06:37:46;1.43;;;1.23;;
11943;SDS011;6031;50.220;10.122;2023-08-07T06:40:12;0.50;;;0.50;;
11943;SDS011;6031;50.220;10.122;2023-08-07T06:42:37;0.67;;;0.67;;
11943;SDS011;6031;50.220;10.122;2023-08-07T06:45:03;1.03;;;0.93;;
11943;SDS011;6031;50.220;10.122;2023-08-07T06:47:29;1.60;;;0.90;;
11943;SDS011;6031;50.220;10.122;2023-08-07T06:49:55;1.03;;;0.93;;
11943;SDS011;6031;50.220;10.122;2023-08-07T06:52:20;1.73;;;1.00;;
11943;SDS011;6031;50.220;10.122;2023-08-07T06:54:46;3.57;;;1.43;;
11943;SDS011;6031;50.220;10.122;2023-08-07T06:57:11;1.60;;;0.90;;
11943;SDS011;6031;50.220;10.122;2023-08-07T06:59:37;2.43;;;1.37;;
11943;SDS011;6031;50.220;10.122;2023-08-07T07:02:03;1.40;;;1.30;;
11943;SDS011;6031;50.220;10.122;2023-08-07T07:04:29;1.40;;;1.20;;
11943;SDS011;6031;50.220;10.122;2023-08-07T07:06:54;2.20;;;1.13;;
11943;SDS011;6031;50.220;10.122;2023-08-07T07:09:20;1.97;;;1.17;;
11943;SDS011;6031;50.220;10.122;2023-08-07T07:11:46;1.67;;;1.10;;
11943;SDS011;6031;50.220;10.122;2023-08-07T07:14:11;1.40;;;1.30;;
11943;SDS011;6031;50.220;10.122;2023-08-07T07:16:37;1.73;;;1.60;;
11943;SDS011;6031;50.220;10.122;2023-08-07T07:19:03;1.77;;;1.37;;
11943;SDS011;6031;50.220;10.122;2023-08-07T07:21:29;1.70;;;1.10;;
11943;SDS011;6031;50.220;10.122;2023-08-07T07:23:54;1.17;;;1.17;;
11943;SDS011;6031;50.220;10.122;2023-08-07T07:26:20;1.67;;;1.23;;
11943;SDS011;6031;50.220;10.122;2023-08-07T07:28:45;2.90;;;1.60;;
11943;SDS011;6031;50.220;10.122;2023-08-07T07:31:11;1.30;;;1.20;;
11943;SDS011;6031;50.220;10.122;2023-08-07T07:33:37;1.40;;;1.30;;
11943;SDS011;6031;50.220;10.122;2023-08-07T07:36:04;2.20;;;1.77;;
11943;SDS011;6031;50.220;10.122;2023-08-07T07:38:31;1.63;;;1.53;;
11943;SDS011;6031;50.220;10.122;2023-08-07T07:40:57;1.40;;;1.30;;
11943;SDS011;6031;50.220;10.122;2023-08-07T07:43:22;3.00;;;1.83;;
11943;SDS011;6031;50.220;10.122;2023-08-07T07:45:48;1.10;;;1.00;;
11943;SDS011;6031;50.220;10.122;2023-08-07T07:48:14;1.60;;;1.50;;
11943;SDS011;6031;50.220;10.122;2023-08-07T07:50:40;2.27;;;1.90;;
11943;SDS011;6031;50.220;10.122;2023-08-07T07:53:06;2.23;;;1.10;;
11943;SDS011;6031;50.220;10.122;2023-08-07T07:55:31;1.77;;;1.40;;
11943;SDS011;6031;50.220;10.122;2023-08-07T07:57:59;2.77;;;1.47;;
11943;SDS011;6031;50.220;10.122;2023-08-07T08:00:24;2.80;;;2.07;;
11943;SDS011;6031;50.220;10.122;2023-08-07T08:02:53;1.67;;;1.17;;
11943;SDS011;6031;50.220;10.122;2023-08-07T08:05:18;1.40;;;1.30;;
11943;SDS011;6031;50.220;10.122;2023-08-07T08:07:44;2.87;;;2.23;;
11943;SDS011;6031;50.220;10.122;2023-08-07T08:10:10;5.43;;;1.20;;
11943;SDS011;6031;50.220;10.122;2023-08-07T08:12:35;2.00;;;1.33;;
11943;SDS011;6031;50.220;10.122;2023-08-07T08:15:01;1.30;;;1.03;;
11943;SDS011;6031;50.220;10.122;2023-08-07T08:17:27;1.90;;;1.23;;
11943;SDS011;6031;50.220;10.122;2023-08-07T08:19:53;1.33;;;1.23;;
11943;SDS011;6031;50.220;10.122;2023-08-07T08:22:19;2.10;;;1.90;;
11943;SDS011;6031;50.220;10.122;2023-08-07T08:24:44;2.03;;;1.50;;
11943;SDS011;6031;50.220;10.122;2023-08-07T08:27:10;2.60;;;1.80;;
11943;SDS011;6031;50.220;10.122;2023-08-07T08:29:36;2.70;;;1.60;;
11943;SDS011;6031;50.220;10.122;2023-08-07T08:32:01;1.67;;;1.40;;
11943;SDS011;6031;50.220;10.122;2023-08-07T08:34:27;1.60;;;1.50;;
11943;SDS011;6031;50.220;10.122;2023-08-07T08:36:52;2.07;;;1.47;;
11943;SDS011;6031;50.220;10.122;2023-08-07T08:39:18;2.33;;;1.77;;
11943;SDS011;6031;50.220;10.122;2023-08-07T08:41:46;3.50;;;2.20;;
11943;SDS011;6031;50.220;10.122;2023-08-07T08:44:13;1.17;;;1.10;;
11943;SDS011;6031;50.220;10.122;2023-08-07T08:46:39;1.53;;;1.43;;
11943;SDS011;6031;50.220;10.122;2023-08-07T08:49:07;1.83;;;1.47;;
11943;SDS011;6031;50.220;10.122;2023-08-07T08:51:35;1.83;;;1.73;;
11943;SDS011;6031;50.220;10.122;2023-08-07T08:54:01;1.30;;;1.20;;
11943;SDS011;6031;50.220;10.122;2023-08-07T08:56:27;1.60;;;1.50;;
11943;SDS011;6031;50.220;10.122;2023-08-07T08:58:55;2.30;;;1.37;;
11943;SDS011;6031;50.220;10.122;2023-08-07T09:01:20;1.10;;;1.10;;
11943;SDS011;6031;50.220;10.122;2023-08-07T09:03:47;1.70;;;1.60;;
11943;SDS011;6031;50.220;10.122;2023-08-07T09:06:12;1.97;;;1.33;;
11943;SDS011;6031;50.220;10.122;2023-08-07T09:08:42;2.00;;;1.50;;
11943;SDS011;6031;50.220;10.122;2023-08-07T09:11:08;1.47;;;1.40;;
11943;SDS011;6031;50.220;10.122;2023-08-07T09:13:36;2.63;;;1.33;;
11943;SDS011;6031;50.220;10.122;2023-08-07T09:16:03;1.80;;;1.70;;
11943;SDS011;6031;50.220;10.122;2023-08-07T09:18:31;1.53;;;1.43;;
11943;SDS011;6031;50.220;10.122;2023-08-07T09:20:56;2.77;;;1.43;;
11943;SDS011;6031;50.220;10.122;2023-08-07T09:23:22;1.63;;;1.40;;
11943;SDS011;6031;50.220;10.122;2023-08-07T09:25:55;2.20;;;1.83;;
11943;SDS011;6031;50.220;10.122;2023-08-07T09:28:24;1.70;;;1.60;;
11943;SDS011;6031;50.220;10.122;2023-08-07T09:30:51;1.77;;;1.67;;
11943;SDS011;6031;50.220;10.122;2023-08-07T09:33:24;1.60;;;1.00;;
11943;SDS011;6031;50.220;10.122;2023-08-07T09:35:53;3.23;;;1.60;;
11943;SDS011;6031;50.220;10.122;2023-08-07T09:38:28;2.57;;;1.87;;
11943;SDS011;6031;50.220;10.122;2023-08-07T09:41:01;1.80;;;1.53;;
11943;SDS011;6031;50.220;10.122;2023-08-07T09:43:28;1.60;;;1.50;;
11943;SDS011;6031;50.220;10.122;2023-08-07T09:46:01;3.90;;;1.53;;
11943;SDS011;6031;50.220;10.122;2023-08-07T09:48:27;1.60;;;1.50;;
11943;SDS011;6031;50.220;10.122;2023-08-07T09:50:53;2.27;;;1.20;;
11943;SDS011;6031;50.220;10.122;2023-08-07T09:53:26;1.87;;;1.77;;
11943;SDS011;6031;50.220;10.122;2023-08-07T09:55:52;0.80;;;0.80;;
11943;SDS011;6031;50.220;10.122;2023-08-07T09:58:18;1.33;;;1.23;;
11943;SDS011;6031;50.220;10.122;2023-08-07T10:00:46;1.60;;;1.43;;
11943;SDS011;6031;50.220;10.122;2023-08-07T10:03:13;1.43;;;1.37;;
11943;SDS011;6031;50.220;10.122;2023-08-07T10:05:39;1.10;;;1.03;;
11943;SDS011;6031;50.220;10.122;2023-08-07T10:08:06;1.73;;;1.63;;
11943;SDS011;6031;50.220;10.122;2023-08-07T10:10:32;1.33;;;1.23;;
11943;SDS011;6031;50.220;10.122;2023-08-07T10:13:01;1.80;;;1.70;;
11943;SDS011;6031;50.220;10.122;2023-08-07T10:15:26;1.83;;;1.40;;
11943;SDS011;6031;50.220;10.122;2023-08-07T10:17:53;2.90;;;1.90;;
11943;SDS011;6031;50.220;10.122;2023-08-07T10:20:19;1.30;;;1.20;;
11943;SDS011;6031;50.220;10.122;2023-08-07T10:22:46;2.20;;;1.93;;
11943;SDS011;6031;50.220;10.122;2023-08-07T10:25:12;2.43;;;2.07;;
11943;SDS011;6031;50.220;10.122;2023-08-07T10:27:38;3.43;;;1.50;;
11943;SDS011;6031;50.220;10.122;2023-08-07T10:30:07;1.80;;;1.70;;
11943;SDS011;6031;50.220;10.122;2023-08-07T10:32:35;2.37;;;1.67;;
11943;SDS011;6031;50.220;10.122;2023-08-07T10:35:04;1.17;;;1.07;;
11943;SDS011;6031;50.220;10.122;2023-08-07T10:37:43;2.07;;;1.20;;
11943;SDS011;6031;50.220;10.122;2023-08-07T10:40:11;1.30;;;1.20;;
11943;SDS011;6031;50.220;10.122;2023-08-07T10:42:57;2.40;;;1.20;;
11943;SDS011;6031;50.220;10.122;2023-08-07T10:45:23;1.23;;;1.07;;
11943;SDS011;6031;50.220;10.122;2023-08-07T10:48:11;1.97;;;1.20;;
11943;SDS011;6031;50.220;10.122;2023-08-07T10:56:02;1.73;;;1.20;;
11943;SDS011;6031;50.220;10.122;2023-08-07T10:58:32;1.87;;;1.27;;
11943;SDS011;6031;50.220;10.122;2023-08-07T11:06:17;1.30;;;1.30;;
11943;SDS011;6031;50.220;10.122;2023-08-07T11:08:47;2.13;;;1.33;;
11943;SDS011;6031;50.220;10.122;2023-08-07T11:11:13;0.90;;;0.90;;
11943;SDS011;6031;50.220;10.122;2023-08-07T11:13:39;1.10;;;0.67;;
11943;SDS011;6031;50.220;10.122;2023-08-07T11:16:04;1.60;;;1.07;;
11943;SDS011;6031;50.220;10.122;2023-08-07T11:18:30;1.13;;;1.13;;
11943;SDS011;6031;50.220;10.122;2023-08-07T11:20:57;0.90;;;0.90;;
11943;SDS011;6031;50.220;10.122;2023-08-07T11:23:24;1.03;;;0.97;;
11943;SDS011;6031;50.220;10.122;2023-08-07T11:25:50;1.23;;;1.13;;
11943;SDS011;6031;50.220;10.122;2023-08-07T11:28:20;1.03;;;0.87;;
11943;SDS011;6031;50.220;10.122;2023-08-07T11:30:48;0.83;;;0.80;;
11943;SDS011;6031;50.220;10.122;2023-08-07T11:33:17;0.63;;;0.63;;
11943;SDS011;6031;50.220;10.122;2023-08-07T11:35:43;0.70;;;0.70;;
11943;SDS011;6031;50.220;10.122;2023-08-07T11:38:09;1.47;;;0.87;;
11943;SDS011;6031;50.220;10.122;2023-08-07T11:40:34;0.90;;;0.83;;
11943;SDS011;6031;50.220;10.122;2023-08-07T11:43:01;0.97;;;0.80;;
11943;SDS011;6031;50.220;10.122;2023-08-07T11:45:26;1.07;;;1.00;;
11943;SDS011;6031;50.220;10.122;2023-08-07T11:47:52;6.73;;;1.90;;
11943;SDS011;6031;50.220;10.122;2023-08-07T11:50:20;1.83;;;1.07;;
11943;SDS011;6031;50.220;10.122;2023-08-07T11:52:46;0.97;;;0.97;;
11943;SDS011;6031;50.220;10.122;2023-08-07T11:55:13;3.10;;;1.20;;
11943;SDS011;6031;50.220;10.122;2023-08-07T11:57:39;0.93;;;0.93;;
11943;SDS011;6031;50.220;10.122;2023-08-07T12:00:07;1.77;;;1.40;;
11943;SDS011;6031;50.220;10.122;2023-08-07T12:02:40;1.00;;;1.00;;
11943;SDS011;6031;50.220;10.122;2023-08-07T12:05:10;1.53;;;1.43;;
11943;SDS011;6031;50.220;10.122;2023-08-07T12:07:37;2.93;;;1.33;;
11943;SDS011;6031;50.220;10.122;2023-08-07T12:10:06;1.00;;;0.90;;
11943;SDS011;6031;50.220;10.122;2023-08-07T12:12:36;1.13;;;1.13;;
11943;SDS011;6031;50.220;10.122;2023-08-07T12:15:04;1.40;;;1.30;;
11943;SDS011;6031;50.220;10.122;2023-08-07T12:17:32;1.33;;;1.23;;
11943;SDS011;6031;50.220;10.122;2023-08-07T12:19:58;2.00;;;1.80;;
11943;SDS011;6031;50.220;10.122;2023-08-07T12:22:24;2.07;;;1.50;;
11943;SDS011;6031;50.220;10.122;2023-08-07T12:24:53;2.67;;;1.40;;
11943;SDS011;6031;50.220;10.122;2023-08-07T12:27:19;2.20;;;1.83;;
11943;SDS011;6031;50.220;10.122;2023-08-07T12:29:45;1.87;;;1.60;;
11943;SDS011;6031;50.220;10.122;2023-08-07T12:32:11;1.43;;;1.43;;
11943;SDS011;6031;50.220;10.122;2023-08-07T12:34:36;1.70;;;1.60;;
11943;SDS011;6031;50.220;10.122;2023-08-07T12:37:03;1.43;;;1.33;;
11943;SDS011;6031;50.220;10.122;2023-08-07T12:39:29;2.50;;;2.00;;
11943;SDS011;6031;50.220;10.122;2023-08-07T12:41:54;1.53;;;1.43;;
11943;SDS011;6031;50.220;10.122;2023-08-07T12:44:20;1.67;;;1.57;;
11943;SDS011;6031;50.220;10.122;2023-08-07T12:46:46;1.47;;;1.37;;
11943;SDS011;6031;50.220;10.122;2023-08-07T12:49:11;2.10;;;1.77;;
11943;SDS011;6031;50.220;10.122;2023-08-07T12:51:37;2.23;;;1.67;;
11943;SDS011;6031;50.220;10.122;2023-08-07T12:54:02;1.93;;;1.83;;
11943;SDS011;6031;50.220;10.122;2023-08-07T12:56:28;1.60;;;1.50;;
11943;SDS011;6031;50.220;10.122;2023-08-07T12:58:53;1.70;;;1.40;;
11943;SDS011;6031;50.220;10.122;2023-08-07T13:01:19;1.63;;;1.53;;
11943;SDS011;6031;50.220;10.122;2023-08-07T13:03:44;1.30;;;1.27;;
11943;SDS011;6031;50.220;10.122;2023-08-07T13:06:10;3.17;;;1.30;;
11943;SDS011;6031;50.220;10.122;2023-08-07T13:08:36;1.00;;;1.00;;
11943;SDS011;6031;50.220;10.122;2023-08-07T13:11:02;1.20;;;1.20;;
11943;SDS011;6031;50.220;10.122;2023-08-07T13:13:28;1.50;;;1.10;;
11943;SDS011;6031;50.220;10.122;2023-08-07T13:15:54;1.40;;;1.30;;
11943;SDS011;6031;50.220;10.122;2023-08-07T13:18:19;1.63;;;1.13;;
11943;SDS011;6031;50.220;10.122;2023-08-07T13:20:45;0.80;;;0.80;;
11943;SDS011;6031;50.220;10.122;2023-08-07T13:23:11;2.47;;;1.10;;
11943;SDS011;6031;50.220;10.122;2023-08-07T13:25:37;0.90;;;0.90;;
11943;SDS011;6031;50.220;10.122;2023-08-07T13:28:02;1.03;;;1.03;;
11943;SDS011;6031;50.220;10.122;2023-08-07T13:30:31;1.07;;;1.03;;
11943;SDS011;6031;50.220;10.122;2023-08-07T13:33:00;2.00;;;1.47;;
11943;SDS011;6031;50.220;10.122;2023-08-07T13:35:26;1.50;;;1.40;;
11943;SDS011;6031;50.220;10.122;2023-08-07T13:37:51;5.57;;;1.47;;
11943;SDS011;6031;50.220;10.122;2023-08-07T13:40:17;1.50;;;1.40;;
11943;SDS011;6031;50.220;10.122;2023-08-07T13:42:43;1.37;;;1.27;;
11943;SDS011;6031;50.220;10.122;2023-08-07T13:45:11;1.30;;;1.30;;
11943;SDS011;6031;50.220;10.122;2023-08-07T13:47:38;1.50;;;1.40;;
11943;SDS011;6031;50.220;10.122;2023-08-07T13:50:04;2.00;;;1.87;;
11943;SDS011;6031;50.220;10.122;2023-08-07T13:52:30;1.53;;;1.43;;
11943;SDS011;6031;50.220;10.122;2023-08-07T13:54:56;2.53;;;1.30;;
11943;SDS011;6031;50.220;10.122;2023-08-07T13:57:21;2.33;;;1.97;;
11943;SDS011;6031;50.220;10.122;2023-08-07T13:59:47;1.20;;;1.20;;
11943;SDS011;6031;50.220;10.122;2023-08-07T14:02:12;1.83;;;1.30;;
11943;SDS011;6031;50.220;10.122;2023-08-07T14:04:38;1.93;;;1.30;;
11943;SDS011;6031;50.220;10.122;2023-08-07T14:07:04;4.80;;;1.53;;
11943;SDS011;6031;50.220;10.122;2023-08-07T14:09:30;5.20;;;2.00;;
11943;SDS011;6031;50.220;10.122;2023-08-07T14:11:55;1.20;;;1.00;;
11943;SDS011;6031;50.220;10.122;2023-08-07T14:14:22;1.53;;;1.37;;
11943;SDS011;6031;50.220;10.122;2023-08-07T14:16:47;2.63;;;1.37;;
11943;SDS011;6031;50.220;10.122;2023-08-07T14:19:13;2.97;;;1.80;;
11943;SDS011;6031;50.220;10.122;2023-08-07T14:21:38;1.37;;;1.17;;
11943;SDS011;6031;50.220;10.122;2023-08-07T14:24:04;1.00;;;1.00;;
11943;SDS011;6031;50.220;10.122;2023-08-07T14:26:30;1.87;;;1.07;;
11943;SDS011;6031;50.220;10.122;2023-08-07T14:28:56;1.30;;;1.20;;
11943;SDS011;6031;50.220;10.122;2023-08-07T14:31:21;0.97;;;0.97;;
11943;SDS011;6031;50.220;10.122;2023-08-07T14:33:47;1.37;;;1.27;;
11943;SDS011;6031;50.220;10.122;2023-08-07T14:36:12;2.17;;;1.20;;
11943;SDS011;6031;50.220;10.122;2023-08-07T14:38:39;1.50;;;1.40;;
11943;SDS011;6031;50.220;10.122;2023-08-07T14:41:05;2.63;;;1.40;;
11943;SDS011;6031;50.220;10.122;2023-08-07T14:43:31;4.73;;;1.33;;
11943;SDS011;6031;50.220;10.122;2023-08-07T14:45:57;1.60;;;1.50;;
11943;SDS011;6031;50.220;10.122;2023-08-07T14:48:23;3.00;;;1.70;;
11943;SDS011;6031;50.220;10.122;2023-08-07T14:50:49;1.27;;;1.17;;
11943;SDS011;6031;50.220;10.122;2023-08-07T14:53:14;4.53;;;3.07;;